Terminal Aerodrome Forecast
Issued by NWS Duluth, MN

Home | Current Version | Previous Version | Text Only | Print | Product List | Glossary On
Versions: 1 2 3 4 5 6 7 8 9 10 11 12 13 14 15 16 17 18 19 20 21 22 23 24 25 26 27 28
000
FTUS43 KDLH 232300 RRA
TAFDLH
TAF
KDLH 232356Z 2400/2424 32008KT 5SM BR SCT006 OVC040
      TEMPO 2400/2404 4SM -DZ BR OVC006
     FM240400 32009KT 4SM -DZ BR OVC014
     FM240800 32012G20KT 3SM -FZDZSN BLSN OVC010
     FM241200 33018G25KT 3SM -SN BLSN OVC012
     FM241800 33020G30KT 5SM -SN BLSN OVC020=

USA.gov is the U.S. government's official web portal to all federal, state and local government web resources and services.